Eftichia — C6ZI4 — position and weather

sailwx.info

Track history (hours):
 
Tides and Currents Weather Stations Pressure Air Temp Water Temp Dewpoint Dewpoint Depression Visibility Wind Speed Wind Dir Waves Ship Positions

Eftichia

Last reported at 2017-Dec-11 07:29 UTC. Time now 2017-Dec-11 07:56 UTC.
Position N 34°14' E 132°31'.

Length 181 m; draft 6.1 m.

Type: Cargo ship. MMSI: 311033882.

Date/timePositionNaut miles runAvg speedWind from/ knotsBaromVisibWave heightAir tempDewpointWater temp
2017-Dec-11 07:29N 34°14' E 132°31'0 0.1
2017-Dec-11 06:59N 34°14' E 132°31'0 0.0
2017-Dec-11 06:29N 34°14' E 132°31'0 0.0
2017-Dec-11 05:59N 34°14' E 132°31'0 0.1
2017-Dec-11 05:29N 34°14' E 132°31'0 0.1
2017-Dec-11 04:59N 34°14' E 132°31'0 0.1
2017-Dec-11 04:29N 34°14' E 132°31'0 0.2
2017-Dec-11 03:59N 34°14' E 132°31'0 0.0
2017-Dec-11 03:29N 34°14' E 132°31'0 0.1
2017-Dec-11 02:59N 34°14' E 132°31'0 0.1
2017-Dec-11 02:29N 34°14' E 132°31'0 0.0
2017-Dec-11 01:59N 34°14' E 132°31'0 0.3
2017-Dec-11 01:29N 34°14' E 132°31'0 0.3
2017-Dec-11 01:00N 34°14' E 132°31'1 1.9
2017-Dec-11 00:31N 34°15' E 132°31'3 5.0
2017-Dec-11 00:01N 34°17' E 132°30'2 4.7
2017-Dec-10 23:31N 34°18' E 132°27'4 8.9
2017-Dec-10 23:01N 34°16' E 132°22'510.7
2017-Dec-10 22:30N 34°11' E 132°22'611.3
2017-Dec-10 22:00N 34°06' E 132°25'611.0
2017-Dec-10 21:29N 34°01' E 132°29'5 8.5
2017-Dec-10 20:51N 33°56' E 132°30'511.3
2017-Dec-10 20:25N 33°51' E 132°28'511.1
2017-Dec-10 19:58N 33°47' E 132°25'711.4
2017-Dec-10 19:23N 33°42' E 132°20'811.5
2017-Dec-10 18:43N 33°36' E 132°14'311.5
2017-Dec-10 18:29N 33°34' E 132°12'1011.9
2017-Dec-10 17:40N 33°27' E 132°04'212.3
2017-Dec-10 17:30N 33°25' E 132°03'612.0
2017-Dec-10 16:59N 33°20' E 131°59'712.5
2017-Dec-10 16:27N 33°13' E 132°02'811.8
2017-Dec-10 15:49N 33°06' E 132°05'412.7
2017-Dec-10 15:30N 33°02' E 132°06'  
2017-Dec-08 04:48N 24°39' E 123°46'2 8.4
2017-Dec-08 04:30N 24°37' E 123°44'4 8.4
2017-Dec-08 04:00N 24°34' E 123°41'4 7.5
2017-Dec-08 03:31N 24°31' E 123°39'4 7.6
2017-Dec-08 03:01N 24°28' E 123°35'4 7.9
2017-Dec-08 02:31N 24°26' E 123°32'4 8.6
2017-Dec-08 02:01N 24°23' E 123°29'4 8.3
2017-Dec-08 01:30N 24°20' E 123°26'4 8.4
2017-Dec-08 01:01N 24°17' E 123°23'4 8.4
2017-Dec-08 00:31N 24°14' E 123°19'4 8.6
2017-Dec-08 00:01N 24°11' E 123°15'4 8.9
2017-Dec-07 23:31N 24°08' E 123°12'5 9.0
2017-Dec-07 23:00N 24°05' E 123°09'4 8.7
2017-Dec-07 22:31N 24°01' E 123°06'4 9.0
2017-Dec-07 22:01N 23°58' E 123°02'4 8.9
2017-Dec-07 21:30N 23°55' E 122°59'4 8.6
2017-Dec-07 21:00N 23°51' E 122°56'4 8.8
2017-Dec-07 20:30N 23°48' E 122°53'4 8.4
2017-Dec-07 20:00N 23°45' E 122°50'5 9.4
2017-Dec-07 19:31N 23°41' E 122°47'5 9.7
2017-Dec-07 19:00N 23°37' E 122°43'5 9.9
2017-Dec-07 18:30N 23°34' E 122°40'6311.9
2017-Dec-07 13:11N 22°47' E 121°54'512.5
2017-Dec-07 12:47N 22°43' E 121°50'412.8
2017-Dec-07 12:27N 22°40' E 121°47'612.9
2017-Dec-07 11:59N 22°35' E 121°42'712.4
2017-Dec-07 11:24N 22°30' E 121°37'511.9
2017-Dec-07 10:58N 22°26' E 121°33'1612.6
2017-Dec-07 09:40N 22°14' E 121°21'312.1
2017-Dec-07 09:25N 22°12' E 121°19'912.5
2017-Dec-07 08:43N 22°06' E 121°12'  
Track history (hours):
 
Tides and Currents Weather Stations Pressure Air Temp Water Temp Dewpoint Dewpoint Depression Visibility Wind Speed Wind Dir Waves Ship Positions

Eftichia

Last reported at 2017-Dec-11 07:29 UTC. Time now 2017-Dec-11 07:56 UTC.
Position N 34°14' E 132°31'.

Length 181 m; draft 6.1 m.

Type: Cargo ship. MMSI: 311033882.

Date/timePositionNaut miles runAvg speedWind from/ knotsBaromVisibWave heightAir tempDewpointWater temp
2017-Dec-11 07:29N 34°14' E 132°31'0 0.1
2017-Dec-11 06:59N 34°14' E 132°31'0 0.0
2017-Dec-11 06:29N 34°14' E 132°31'0 0.0
2017-Dec-11 05:59N 34°14' E 132°31'0 0.1
2017-Dec-11 05:29N 34°14' E 132°31'0 0.1
2017-Dec-11 04:59N 34°14' E 132°31'0 0.1
2017-Dec-11 04:29N 34°14' E 132°31'0 0.2
2017-Dec-11 03:59N 34°14' E 132°31'0 0.0
2017-Dec-11 03:29N 34°14' E 132°31'0 0.1
2017-Dec-11 02:59N 34°14' E 132°31'0 0.1
2017-Dec-11 02:29N 34°14' E 132°31'0 0.0
2017-Dec-11 01:59N 34°14' E 132°31'0 0.3
2017-Dec-11 01:29N 34°14' E 132°31'0 0.3
2017-Dec-11 01:00N 34°14' E 132°31'1 1.9
2017-Dec-11 00:31N 34°15' E 132°31'3 5.0
2017-Dec-11 00:01N 34°17' E 132°30'2 4.7
2017-Dec-10 23:31N 34°18' E 132°27'4 8.9
2017-Dec-10 23:01N 34°16' E 132°22'510.7
2017-Dec-10 22:30N 34°11' E 132°22'611.3
2017-Dec-10 22:00N 34°06' E 132°25'611.0
2017-Dec-10 21:29N 34°01' E 132°29'5 8.5
2017-Dec-10 20:51N 33°56' E 132°30'511.3
2017-Dec-10 20:25N 33°51' E 132°28'511.1
2017-Dec-10 19:58N 33°47' E 132°25'711.4
2017-Dec-10 19:23N 33°42' E 132°20'811.5
2017-Dec-10 18:43N 33°36' E 132°14'311.5
2017-Dec-10 18:29N 33°34' E 132°12'1011.9
2017-Dec-10 17:40N 33°27' E 132°04'212.3
2017-Dec-10 17:30N 33°25' E 132°03'612.0
2017-Dec-10 16:59N 33°20' E 131°59'712.5
2017-Dec-10 16:27N 33°13' E 132°02'811.8
2017-Dec-10 15:49N 33°06' E 132°05'412.7
2017-Dec-10 15:30N 33°02' E 132°06'  
2017-Dec-08 04:48N 24°39' E 123°46'2 8.4
2017-Dec-08 04:30N 24°37' E 123°44'4 8.4
2017-Dec-08 04:00N 24°34' E 123°41'4 7.5
2017-Dec-08 03:31N 24°31' E 123°39'4 7.6
2017-Dec-08 03:01N 24°28' E 123°35'4 7.9
2017-Dec-08 02:31N 24°26' E 123°32'4 8.6
2017-Dec-08 02:01N 24°23' E 123°29'4 8.3
2017-Dec-08 01:30N 24°20' E 123°26'4 8.4
2017-Dec-08 01:01N 24°17' E 123°23'4 8.4
2017-Dec-08 00:31N 24°14' E 123°19'4 8.6
2017-Dec-08 00:01N 24°11' E 123°15'4 8.9
2017-Dec-07 23:31N 24°08' E 123°12'5 9.0
2017-Dec-07 23:00N 24°05' E 123°09'4 8.7
2017-Dec-07 22:31N 24°01' E 123°06'4 9.0
2017-Dec-07 22:01N 23°58' E 123°02'4 8.9
2017-Dec-07 21:30N 23°55' E 122°59'4 8.6
2017-Dec-07 21:00N 23°51' E 122°56'4 8.8
2017-Dec-07 20:30N 23°48' E 122°53'4 8.4
2017-Dec-07 20:00N 23°45' E 122°50'5 9.4
2017-Dec-07 19:31N 23°41' E 122°47'5 9.7
2017-Dec-07 19:00N 23°37' E 122°43'5 9.9
2017-Dec-07 18:30N 23°34' E 122°40'6311.9
2017-Dec-07 13:11N 22°47' E 121°54'512.5
2017-Dec-07 12:47N 22°43' E 121°50'412.8
2017-Dec-07 12:27N 22°40' E 121°47'612.9
2017-Dec-07 11:59N 22°35' E 121°42'712.4
2017-Dec-07 11:24N 22°30' E 121°37'511.9
2017-Dec-07 10:58N 22°26' E 121°33'1612.6
2017-Dec-07 09:40N 22°14' E 121°21'312.1
2017-Dec-07 09:25N 22°12' E 121°19'912.5
2017-Dec-07 08:43N 22°06' E 121°12'  

Dump ship's entire track history